createdAt,value
2024-04-16T00:00:45.375Z,13.12
2024-04-16T00:05:50.756Z,13.86
2024-04-16T00:10:56.160Z,13.77
2024-04-16T00:16:04.306Z,13.00
2024-04-16T00:21:09.975Z,13.25
2024-04-16T00:26:15.479Z,13.43
2024-04-16T00:31:23.705Z,13.17
2024-04-16T00:36:29.234Z,13.30
2024-04-16T00:41:34.669Z,12.98
2024-04-16T00:46:45.652Z,12.78
2024-04-16T00:51:51.520Z,13.56
2024-04-16T00:56:57.499Z,13.09
2024-04-16T01:02:05.517Z,13.23
2024-04-16T01:07:11.324Z,13.31
2024-04-16T01:12:16.751Z,12.97
2024-04-16T01:17:25.056Z,13.66
2024-04-16T01:22:30.691Z,12.77
2024-04-16T01:27:38.853Z,12.76
2024-04-16T01:32:44.621Z,13.37
2024-04-16T01:37:49.990Z,13.24
2024-04-16T01:42:58.212Z,13.50
2024-04-16T01:48:04.144Z,12.60
2024-04-16T01:53:09.673Z,12.92
2024-04-16T01:58:17.744Z,13.54
2024-04-16T02:03:23.210Z,13.86
2024-04-16T02:08:28.676Z,12.81
2024-04-16T02:13:36.945Z,13.06
2024-04-16T02:18:42.595Z,13.04
2024-04-16T02:23:48.497Z,13.05
2024-04-16T02:28:56.619Z,13.21
2024-04-16T02:34:02.211Z,13.53
2024-04-16T02:39:08.196Z,13.26
2024-04-16T02:44:16.373Z,13.04
2024-04-16T02:49:21.871Z,12.45
2024-04-16T02:54:27.371Z,13.30
2024-04-16T02:59:35.639Z,13.44
2024-04-16T03:04:41.194Z,13.63
2024-04-16T03:09:46.660Z,12.69
2024-04-16T03:14:55.657Z,12.63
2024-04-16T03:20:01.093Z,13.47
2024-04-16T03:25:06.799Z,13.17
2024-04-16T03:30:15.778Z,13.35
2024-04-16T03:35:21.426Z,13.73
2024-04-16T03:40:26.820Z,13.29
2024-04-16T03:45:34.814Z,13.38
2024-04-16T03:50:41.321Z,13.09
2024-04-16T03:55:47.373Z,12.87
2024-04-16T04:01:08.583Z,13.25
2024-04-16T04:06:14.084Z,13.20
2024-04-16T04:11:19.557Z,13.64
2024-04-16T04:16:39.275Z,13.94
2024-04-16T04:21:47.292Z,14.35
2024-04-16T04:26:52.736Z,13.71
2024-04-16T04:32:01.008Z,13.85
2024-04-16T04:37:06.731Z,13.66
2024-04-16T04:42:12.128Z,13.89
2024-04-16T04:47:20.752Z,13.87
2024-04-16T04:52:28.390Z,13.50
2024-04-16T04:57:33.875Z,13.30
2024-04-16T05:02:43.820Z,14.03
2024-04-16T05:07:52.506Z,12.87
2024-04-16T05:12:57.983Z,13.82
2024-04-16T05:18:06.416Z,13.87
2024-04-16T05:23:14.479Z,13.61
2024-04-16T05:28:20.247Z,13.63
2024-04-16T05:33:28.552Z,14.24
2024-04-16T05:38:34.361Z,13.78
2024-04-16T05:43:42.214Z,13.81
2024-04-16T05:48:50.478Z,14.17
2024-04-16T05:53:55.980Z,14.26
2024-04-16T05:59:01.442Z,13.78
2024-04-16T06:04:10.400Z,13.95
2024-04-16T06:09:15.878Z,14.21
2024-04-16T06:14:21.321Z,14.68
2024-04-16T06:19:29.633Z,14.58
2024-04-16T06:24:35.073Z,14.14
2024-04-16T06:29:40.958Z,13.65
2024-04-16T06:34:49.006Z,14.79
2024-04-16T06:39:54.309Z,14.53
2024-04-16T06:44:59.748Z,15.13
2024-04-16T06:50:08.681Z,14.98
2024-04-16T06:55:14.036Z,14.59
2024-04-16T07:00:19.770Z,14.99
2024-04-16T07:05:32.328Z,14.43
2024-04-16T07:10:37.692Z,13.48
2024-04-16T07:15:43.898Z,13.50
2024-04-16T07:20:55.687Z,14.25
2024-04-16T07:26:04.847Z,14.95
2024-04-16T07:31:18.268Z,15.26
2024-04-16T07:36:27.581Z,15.30
2024-04-16T07:41:33.172Z,15.31
2024-04-16T07:46:38.830Z,16.22
2024-04-16T07:51:47.246Z,15.63
2024-04-16T07:56:53.680Z,15.34
2024-04-16T08:01:59.076Z,16.07
2024-04-16T08:07:07.427Z,15.07
2024-04-16T08:12:12.870Z,16.22
2024-04-16T08:17:18.559Z,16.05
2024-04-16T08:22:27.163Z,16.85
2024-04-16T08:27:32.980Z,17.79
2024-04-16T08:32:38.565Z,18.13
2024-04-16T08:37:46.811Z,16.85
2024-04-16T08:42:57.066Z,16.95
2024-04-16T08:48:03.093Z,17.64
2024-04-16T08:53:12.621Z,18.88
2024-04-16T08:58:18.498Z,17.90
2024-04-16T09:03:24.922Z,17.90
2024-04-16T09:08:32.977Z,18.59
2024-04-16T09:13:44.960Z,18.28
2024-04-16T09:18:50.582Z,18.49
2024-04-16T09:24:03.455Z,17.94
2024-04-16T09:29:08.951Z,17.96
2024-04-16T09:34:15.917Z,19.47
2024-04-16T09:39:26.142Z,19.55
2024-04-16T09:44:35.258Z,19.36
2024-04-16T09:49:50.519Z,19.39
2024-04-16T09:55:05.828Z,19.68
2024-04-16T10:00:14.052Z,19.25
2024-04-16T10:05:20.343Z,19.87
2024-04-16T10:10:28.679Z,21.13
2024-04-16T10:15:34.035Z,20.49
2024-04-16T10:20:39.372Z,20.43
2024-04-16T10:25:53.063Z,20.70
2024-04-16T10:31:03.206Z,20.99
2024-04-16T10:36:09.097Z,20.84
2024-04-16T10:41:17.189Z,20.90
2024-04-16T10:46:22.693Z,21.06
2024-04-16T10:51:32.168Z,20.41
2024-04-16T10:56:40.462Z,20.64
2024-04-16T11:01:46.615Z,20.44
2024-04-16T11:06:53.981Z,20.27
2024-04-16T11:12:05.698Z,20.81
2024-04-16T11:17:11.119Z,20.89
2024-04-16T11:22:16.774Z,20.88
2024-04-16T11:27:25.351Z,21.18
2024-04-16T11:32:31.047Z,20.51
2024-04-16T11:37:42.577Z,20.85
2024-04-16T11:42:51.156Z,20.68
2024-04-16T11:47:56.551Z,19.55
2024-04-16T11:53:01.998Z,19.78
2024-04-16T11:58:12.131Z,20.64
2024-04-16T12:03:17.646Z,19.32
2024-04-16T12:08:22.950Z,19.30
2024-04-16T12:13:31.696Z,20.29
2024-04-16T12:18:37.164Z,20.88
2024-04-16T12:23:42.476Z,20.22
2024-04-16T12:28:51.447Z,20.85
2024-04-16T12:33:58.068Z,21.68
2024-04-16T12:39:03.308Z,21.68
2024-04-16T12:44:11.522Z,22.73
2024-04-16T12:49:16.927Z,23.03
2024-04-16T12:54:22.707Z,22.72
2024-04-16T12:59:31.445Z,21.30
2024-04-16T13:04:36.905Z,20.87
2024-04-16T13:09:42.220Z,20.03
2024-04-16T13:14:50.307Z,19.81
2024-04-16T13:19:55.918Z,20.63
2024-04-16T13:25:01.313Z,19.91
2024-04-16T13:30:10.713Z,20.81
2024-04-16T13:35:16.146Z,21.06
2024-04-16T13:40:21.955Z,21.37
2024-04-16T13:45:30.224Z,19.94
2024-04-16T13:50:35.485Z,21.39
2024-04-16T13:55:41.152Z,22.53
2024-04-16T14:00:49.109Z,22.41
2024-04-16T14:05:54.509Z,21.36
2024-04-16T14:10:59.844Z,20.90
2024-04-16T14:16:08.973Z,21.66
2024-04-16T14:21:14.382Z,22.10
2024-04-16T14:26:20.056Z,22.09
2024-04-16T14:31:28.358Z,22.39
2024-04-16T14:36:33.725Z,22.76
2024-04-16T14:41:39.225Z,21.50
2024-04-16T14:46:50.014Z,22.91
2024-04-16T14:51:55.842Z,21.86
2024-04-16T14:57:01.134Z,22.19
2024-04-16T15:02:09.143Z,20.66
2024-04-16T15:07:14.666Z,21.37
2024-04-16T15:12:20.092Z,20.85
2024-04-16T15:17:28.210Z,20.80
2024-04-16T15:22:33.758Z,20.41
2024-04-16T15:27:39.793Z,19.42
2024-04-16T15:32:47.992Z,20.07
2024-04-16T15:38:01.847Z,20.48
2024-04-16T15:43:07.648Z,20.37
2024-04-16T15:48:15.969Z,21.34
2024-04-16T15:53:21.411Z,21.69
2024-04-16T15:58:27.154Z,21.49
2024-04-16T16:03:35.510Z,21.57
2024-04-16T16:08:41.015Z,20.57
2024-04-16T16:13:46.525Z,20.57
2024-04-16T16:18:54.718Z,22.05
2024-04-16T16:24:00.257Z,20.16
2024-04-16T16:29:05.782Z,19.50
2024-04-16T16:34:13.965Z,19.89
2024-04-16T16:39:19.368Z,21.47
2024-04-16T16:44:25.305Z,19.90
2024-04-16T16:49:33.599Z,20.08
2024-04-16T16:54:39.209Z,17.24
2024-04-16T16:59:44.614Z,18.80
2024-04-16T17:04:52.680Z,18.90
2024-04-16T17:09:58.209Z,18.35
2024-04-16T17:15:03.919Z,19.01
2024-04-16T17:20:12.471Z,19.11
2024-04-16T17:25:17.993Z,18.92
2024-04-16T17:30:23.342Z,18.63
2024-04-16T17:35:32.270Z,17.71
2024-04-16T17:40:38.305Z,17.46
2024-04-16T17:45:44.134Z,17.33
2024-04-16T17:51:02.129Z,16.29
2024-04-16T17:56:12.213Z,16.88
2024-04-16T18:01:18.530Z,16.24
2024-04-16T18:06:26.594Z,16.43
2024-04-16T18:11:32.159Z,16.71
2024-04-16T18:16:39.679Z,17.18
2024-04-16T18:21:48.095Z,16.95
2024-04-16T18:26:54.050Z,17.27
2024-04-16T18:31:59.607Z,16.43
2024-04-16T18:37:08.503Z,16.71
2024-04-16T18:42:17.318Z,17.03
2024-04-16T18:47:23.222Z,17.11
2024-04-16T18:52:31.247Z,17.41
2024-04-16T18:57:36.620Z,16.95
2024-04-16T19:02:45.696Z,17.21
2024-04-16T19:07:54.224Z,17.15
2024-04-16T19:13:00.858Z,16.95
2024-04-16T19:18:06.460Z,16.67
2024-04-16T19:23:14.715Z,17.44
2024-04-16T19:28:20.661Z,16.97
2024-04-16T19:33:26.768Z,17.13
2024-04-16T19:38:36.205Z,17.08
2024-04-16T19:43:43.655Z,15.61
2024-04-16T19:48:49.217Z,16.93
2024-04-16T19:53:58.533Z,15.74
2024-04-16T19:59:05.742Z,16.24
2024-04-16T20:04:11.354Z,16.32
2024-04-16T20:09:20.006Z,16.46
2024-04-16T20:14:25.449Z,16.28
2024-04-16T20:19:30.989Z,16.57
2024-04-16T20:24:39.103Z,16.55
2024-04-16T20:29:44.870Z,16.61
2024-04-16T20:34:53.832Z,16.61
2024-04-16T20:40:02.721Z,16.55
2024-04-16T20:45:08.685Z,16.52
2024-04-16T20:50:14.095Z,16.97
2024-04-16T20:55:22.947Z,17.02
2024-04-16T21:00:28.465Z,16.61
2024-04-16T21:05:34.430Z,16.61
2024-04-16T21:10:43.310Z,16.25
2024-04-16T21:15:55.980Z,16.26
2024-04-16T21:21:01.450Z,16.49
2024-04-16T21:26:09.613Z,16.54
2024-04-16T21:31:14.860Z,16.34
2024-04-16T21:36:20.184Z,16.25
2024-04-16T21:41:28.169Z,16.16
2024-04-16T21:46:33.844Z,16.01
2024-04-16T21:51:39.413Z,15.94
2024-04-16T21:56:47.555Z,15.92
2024-04-16T22:01:53.319Z,15.79
2024-04-16T22:06:58.807Z,15.70
2024-04-16T22:12:06.964Z,15.70
2024-04-16T22:17:12.670Z,15.64
2024-04-16T22:22:18.039Z,15.56
2024-04-16T22:27:26.246Z,15.55
2024-04-16T22:32:31.746Z,15.50
2024-04-16T22:37:37.352Z,15.33
2024-04-16T22:42:48.403Z,15.42
2024-04-16T22:47:53.833Z,15.46
2024-04-16T22:52:59.157Z,15.49
2024-04-16T22:58:07.585Z,16.02
2024-04-16T23:03:14.507Z,15.81
2024-04-16T23:08:20.071Z,15.69
2024-04-16T23:13:28.161Z,15.54
2024-04-16T23:18:33.596Z,15.84
2024-04-16T23:23:39.213Z,15.91
2024-04-16T23:28:47.279Z,15.86
2024-04-16T23:33:52.657Z,16.09
2024-04-16T23:38:57.971Z,16.01
2024-04-16T23:44:06.035Z,15.44
2024-04-16T23:49:12.271Z,15.79
2024-04-16T23:54:17.679Z,15.59
2024-04-16T23:59:25.673Z,15.15
